sensor_id;sensor_type;location;lat;lon;timestamp;P1;durP1;ratioP1;P2;durP2;ratioP2
66575;SDS011;53428;47.686;16.584;2024-02-23T00:00:59;2.10;;;0.40;;
66575;SDS011;53428;47.686;16.584;2024-02-23T00:05:58;1.13;;;0.80;;
66575;SDS011;53428;47.686;16.584;2024-02-23T00:10:57;0.80;;;0.60;;
66575;SDS011;53428;47.686;16.584;2024-02-23T00:15:57;0.90;;;0.60;;
66575;SDS011;53428;47.686;16.584;2024-02-23T00:20:56;0.50;;;0.50;;
66575;SDS011;53428;47.686;16.584;2024-02-23T00:25:55;0.47;;;0.47;;
66575;SDS011;53428;47.686;16.584;2024-02-23T00:30:54;1.10;;;1.00;;
66575;SDS011;53428;47.686;16.584;2024-02-23T00:35:54;0.38;;;0.38;;
66575;SDS011;53428;47.686;16.584;2024-02-23T00:40:53;0.60;;;0.60;;
66575;SDS011;53428;47.686;16.584;2024-02-23T00:45:52;0.60;;;0.60;;
66575;SDS011;53428;47.686;16.584;2024-02-23T00:50:51;0.40;;;0.40;;
66575;SDS011;53428;47.686;16.584;2024-02-23T00:55:50;0.30;;;0.30;;
66575;SDS011;53428;47.686;16.584;2024-02-23T01:00:49;0.68;;;0.45;;
66575;SDS011;53428;47.686;16.584;2024-02-23T01:05:48;0.40;;;0.40;;
66575;SDS011;53428;47.686;16.584;2024-02-23T01:10:47;0.60;;;0.45;;
66575;SDS011;53428;47.686;16.584;2024-02-23T01:15:47;0.82;;;0.65;;
66575;SDS011;53428;47.686;16.584;2024-02-23T01:20:46;0.35;;;0.35;;
66575;SDS011;53428;47.686;16.584;2024-02-23T01:25:45;0.40;;;0.40;;
66575;SDS011;53428;47.686;16.584;2024-02-23T01:30:44;3.72;;;0.50;;
66575;SDS011;53428;47.686;16.584;2024-02-23T01:35:43;0.55;;;0.30;;
66575;SDS011;53428;47.686;16.584;2024-02-23T01:40:42;0.63;;;0.47;;
66575;SDS011;53428;47.686;16.584;2024-02-23T01:45:42;1.55;;;0.50;;
66575;SDS011;53428;47.686;16.584;2024-02-23T01:50:42;0.57;;;0.57;;
66575;SDS011;53428;47.686;16.584;2024-02-23T01:55:42;0.57;;;0.50;;
66575;SDS011;53428;47.686;16.584;2024-02-23T02:00:42;0.40;;;0.40;;
66575;SDS011;53428;47.686;16.584;2024-02-23T02:05:41;0.50;;;0.50;;
66575;SDS011;53428;47.686;16.584;2024-02-23T02:10:41;0.40;;;0.40;;
66575;SDS011;53428;47.686;16.584;2024-02-23T02:15:41;0.75;;;0.57;;
66575;SDS011;53428;47.686;16.584;2024-02-23T02:20:48;0.75;;;0.65;;
66575;SDS011;53428;47.686;16.584;2024-02-23T02:25:54;0.50;;;0.50;;
66575;SDS011;53428;47.686;16.584;2024-02-23T02:35:53;0.20;;;0.20;;
66575;SDS011;53428;47.686;16.584;2024-02-23T02:40:52;0.70;;;0.70;;
66575;SDS011;53428;47.686;16.584;2024-02-23T02:45:52;0.40;;;0.40;;
66575;SDS011;53428;47.686;16.584;2024-02-23T02:50:51;0.77;;;0.60;;
66575;SDS011;53428;47.686;16.584;2024-02-23T02:55:50;0.20;;;0.20;;
66575;SDS011;53428;47.686;16.584;2024-02-23T03:00:50;0.50;;;0.50;;
66575;SDS011;53428;47.686;16.584;2024-02-23T03:05:49;0.22;;;0.22;;
66575;SDS011;53428;47.686;16.584;2024-02-23T03:10:48;1.48;;;0.40;;
66575;SDS011;53428;47.686;16.584;2024-02-23T03:15:47;0.50;;;0.50;;
66575;SDS011;53428;47.686;16.584;2024-02-23T03:20:47;0.50;;;0.50;;
66575;SDS011;53428;47.686;16.584;2024-02-23T03:25:46;0.32;;;0.32;;
66575;SDS011;53428;47.686;16.584;2024-02-23T03:30:45;0.45;;;0.45;;
66575;SDS011;53428;47.686;16.584;2024-02-23T03:35:45;3.20;;;0.30;;
66575;SDS011;53428;47.686;16.584;2024-02-23T03:40:44;0.40;;;0.40;;
66575;SDS011;53428;47.686;16.584;2024-02-23T03:45:43;0.60;;;0.55;;
66575;SDS011;53428;47.686;16.584;2024-02-23T03:50:42;0.47;;;0.45;;
66575;SDS011;53428;47.686;16.584;2024-02-23T03:55:42;0.30;;;0.30;;
66575;SDS011;53428;47.686;16.584;2024-02-23T04:00:42;0.35;;;0.35;;
66575;SDS011;53428;47.686;16.584;2024-02-23T04:05:42;0.38;;;0.28;;
66575;SDS011;53428;47.686;16.584;2024-02-23T04:10:41;0.38;;;0.38;;
66575;SDS011;53428;47.686;16.584;2024-02-23T04:15:40;0.77;;;0.55;;
66575;SDS011;53428;47.686;16.584;2024-02-23T04:20:40;0.38;;;0.38;;
66575;SDS011;53428;47.686;16.584;2024-02-23T04:25:39;0.32;;;0.32;;
66575;SDS011;53428;47.686;16.584;2024-02-23T04:30:38;0.10;;;0.10;;
66575;SDS011;53428;47.686;16.584;2024-02-23T04:35:37;0.60;;;0.60;;
66575;SDS011;53428;47.686;16.584;2024-02-23T04:40:37;0.70;;;0.65;;
66575;SDS011;53428;47.686;16.584;2024-02-23T04:45:36;1.02;;;0.45;;
66575;SDS011;53428;47.686;16.584;2024-02-23T04:50:35;1.67;;;0.57;;
66575;SDS011;53428;47.686;16.584;2024-02-23T04:55:34;1.27;;;0.73;;
66575;SDS011;53428;47.686;16.584;2024-02-23T05:00:33;1.73;;;1.02;;
66575;SDS011;53428;47.686;16.584;2024-02-23T05:05:32;2.15;;;0.90;;
66575;SDS011;53428;47.686;16.584;2024-02-23T05:10:32;1.38;;;1.15;;
66575;SDS011;53428;47.686;16.584;2024-02-23T05:15:31;1.02;;;0.75;;
66575;SDS011;53428;47.686;16.584;2024-02-23T05:20:30;1.30;;;0.75;;
66575;SDS011;53428;47.686;16.584;2024-02-23T05:25:29;2.80;;;1.10;;
66575;SDS011;53428;47.686;16.584;2024-02-23T05:30:28;1.08;;;0.82;;
66575;SDS011;53428;47.686;16.584;2024-02-23T05:35:30;3.97;;;1.58;;
66575;SDS011;53428;47.686;16.584;2024-02-23T05:40:29;10.98;;;5.47;;
66575;SDS011;53428;47.686;16.584;2024-02-23T05:45:28;4.53;;;3.13;;
66575;SDS011;53428;47.686;16.584;2024-02-23T05:50:27;4.72;;;2.63;;
66575;SDS011;53428;47.686;16.584;2024-02-23T05:55:26;6.18;;;2.80;;
66575;SDS011;53428;47.686;16.584;2024-02-23T06:00:25;5.10;;;2.58;;
66575;SDS011;53428;47.686;16.584;2024-02-23T06:05:25;5.97;;;2.97;;
66575;SDS011;53428;47.686;16.584;2024-02-23T06:10:24;5.95;;;3.95;;
66575;SDS011;53428;47.686;16.584;2024-02-23T06:15:23;14.50;;;7.60;;
66575;SDS011;53428;47.686;16.584;2024-02-23T06:20:22;16.90;;;8.15;;
66575;SDS011;53428;47.686;16.584;2024-02-23T06:25:22;9.48;;;5.65;;
66575;SDS011;53428;47.686;16.584;2024-02-23T06:30:21;11.77;;;6.45;;
66575;SDS011;53428;47.686;16.584;2024-02-23T06:35:20;7.82;;;3.42;;
66575;SDS011;53428;47.686;16.584;2024-02-23T06:40:20;4.43;;;2.95;;
66575;SDS011;53428;47.686;16.584;2024-02-23T06:45:19;3.28;;;2.38;;
66575;SDS011;53428;47.686;16.584;2024-02-23T06:50:24;1.60;;;1.30;;
66575;SDS011;53428;47.686;16.584;2024-02-23T06:55:23;1.95;;;1.70;;
66575;SDS011;53428;47.686;16.584;2024-02-23T07:00:22;1.67;;;1.42;;
66575;SDS011;53428;47.686;16.584;2024-02-23T07:05:22;1.30;;;1.20;;
66575;SDS011;53428;47.686;16.584;2024-02-23T07:10:21;3.13;;;2.08;;
66575;SDS011;53428;47.686;16.584;2024-02-23T07:15:21;3.85;;;2.88;;
66575;SDS011;53428;47.686;16.584;2024-02-23T07:20:21;3.78;;;2.38;;
66575;SDS011;53428;47.686;16.584;2024-02-23T07:25:21;5.38;;;1.77;;
66575;SDS011;53428;47.686;16.584;2024-02-23T07:30:20;1.75;;;1.60;;
66575;SDS011;53428;47.686;16.584;2024-02-23T07:35:19;3.13;;;2.38;;
66575;SDS011;53428;47.686;16.584;2024-02-23T07:40:18;6.07;;;2.35;;
66575;SDS011;53428;47.686;16.584;2024-02-23T07:45:17;1.45;;;1.17;;
66575;SDS011;53428;47.686;16.584;2024-02-23T07:50:17;1.70;;;1.27;;
66575;SDS011;53428;47.686;16.584;2024-02-23T07:55:17;1.30;;;1.20;;
66575;SDS011;53428;47.686;16.584;2024-02-23T08:00:16;2.33;;;1.40;;
66575;SDS011;53428;47.686;16.584;2024-02-23T08:05:16;2.30;;;1.60;;
66575;SDS011;53428;47.686;16.584;2024-02-23T08:10:15;2.92;;;1.75;;
66575;SDS011;53428;47.686;16.584;2024-02-23T08:15:14;2.10;;;1.70;;
66575;SDS011;53428;47.686;16.584;2024-02-23T08:20:14;1.55;;;1.45;;
66575;SDS011;53428;47.686;16.584;2024-02-23T08:25:13;2.20;;;1.70;;
66575;SDS011;53428;47.686;16.584;2024-02-23T08:30:13;2.60;;;1.92;;
66575;SDS011;53428;47.686;16.584;2024-02-23T08:35:12;1.88;;;1.42;;
66575;SDS011;53428;47.686;16.584;2024-02-23T08:40:12;1.75;;;1.50;;
66575;SDS011;53428;47.686;16.584;2024-02-23T08:45:11;3.17;;;1.92;;
66575;SDS011;53428;47.686;16.584;2024-02-23T08:50:12;2.63;;;1.35;;
66575;SDS011;53428;47.686;16.584;2024-02-23T08:55:11;1.67;;;1.42;;
66575;SDS011;53428;47.686;16.584;2024-02-23T09:00:10;2.53;;;1.90;;
66575;SDS011;53428;47.686;16.584;2024-02-23T09:05:10;6.97;;;3.75;;
66575;SDS011;53428;47.686;16.584;2024-02-23T09:10:09;7.07;;;3.15;;
66575;SDS011;53428;47.686;16.584;2024-02-23T09:15:08;7.50;;;2.03;;
66575;SDS011;53428;47.686;16.584;2024-02-23T09:20:08;2.38;;;1.45;;
66575;SDS011;53428;47.686;16.584;2024-02-23T09:25:08;1.73;;;0.95;;
66575;SDS011;53428;47.686;16.584;2024-02-23T09:30:07;1.45;;;0.90;;
66575;SDS011;53428;47.686;16.584;2024-02-23T09:35:07;2.10;;;1.38;;
66575;SDS011;53428;47.686;16.584;2024-02-23T09:40:06;2.60;;;1.27;;
66575;SDS011;53428;47.686;16.584;2024-02-23T09:45:06;2.03;;;1.33;;
66575;SDS011;53428;47.686;16.584;2024-02-23T09:50:07;6.45;;;2.97;;
66575;SDS011;53428;47.686;16.584;2024-02-23T09:55:07;2.13;;;1.92;;
66575;SDS011;53428;47.686;16.584;2024-02-23T10:00:07;2.88;;;1.70;;
66575;SDS011;53428;47.686;16.584;2024-02-23T10:05:10;3.10;;;2.22;;
66575;SDS011;53428;47.686;16.584;2024-02-23T10:10:09;2.83;;;2.20;;
66575;SDS011;53428;47.686;16.584;2024-02-23T10:15:09;3.25;;;1.92;;
66575;SDS011;53428;47.686;16.584;2024-02-23T10:20:09;3.13;;;2.17;;
66575;SDS011;53428;47.686;16.584;2024-02-23T10:25:10;3.55;;;2.40;;
66575;SDS011;53428;47.686;16.584;2024-02-23T10:30:09;8.35;;;3.28;;
66575;SDS011;53428;47.686;16.584;2024-02-23T10:35:14;5.03;;;2.67;;
66575;SDS011;53428;47.686;16.584;2024-02-23T10:40:14;13.07;;;7.03;;
66575;SDS011;53428;47.686;16.584;2024-02-23T10:45:16;4.95;;;2.92;;
66575;SDS011;53428;47.686;16.584;2024-02-23T10:50:16;4.07;;;2.75;;
66575;SDS011;53428;47.686;16.584;2024-02-23T10:55:18;3.58;;;2.50;;
66575;SDS011;53428;47.686;16.584;2024-02-23T11:00:17;6.75;;;4.07;;
66575;SDS011;53428;47.686;16.584;2024-02-23T11:05:20;9.10;;;4.13;;
66575;SDS011;53428;47.686;16.584;2024-02-23T11:10:22;5.38;;;2.97;;
66575;SDS011;53428;47.686;16.584;2024-02-23T11:15:26;7.22;;;4.32;;
66575;SDS011;53428;47.686;16.584;2024-02-23T11:20:33;7.95;;;4.53;;
66575;SDS011;53428;47.686;16.584;2024-02-23T11:25:33;5.03;;;3.88;;
66575;SDS011;53428;47.686;16.584;2024-02-23T11:30:34;8.73;;;4.70;;
66575;SDS011;53428;47.686;16.584;2024-02-23T11:35:34;8.40;;;5.13;;
66575;SDS011;53428;47.686;16.584;2024-02-23T11:40:33;9.25;;;6.28;;
66575;SDS011;53428;47.686;16.584;2024-02-23T11:45:33;7.68;;;4.82;;
66575;SDS011;53428;47.686;16.584;2024-02-23T11:50:33;10.10;;;6.03;;
66575;SDS011;53428;47.686;16.584;2024-02-23T11:55:32;7.80;;;5.15;;
66575;SDS011;53428;47.686;16.584;2024-02-23T12:00:31;10.82;;;6.85;;
66575;SDS011;53428;47.686;16.584;2024-02-23T12:05:30;13.48;;;6.28;;
66575;SDS011;53428;47.686;16.584;2024-02-23T12:10:30;9.25;;;6.22;;
66575;SDS011;53428;47.686;16.584;2024-02-23T12:15:30;8.13;;;5.13;;
66575;SDS011;53428;47.686;16.584;2024-02-23T12:20:32;7.75;;;4.72;;
66575;SDS011;53428;47.686;16.584;2024-02-23T12:25:32;6.22;;;4.35;;
66575;SDS011;53428;47.686;16.584;2024-02-23T12:30:32;10.80;;;6.25;;
66575;SDS011;53428;47.686;16.584;2024-02-23T12:35:32;9.20;;;6.75;;
66575;SDS011;53428;47.686;16.584;2024-02-23T12:40:34;14.68;;;7.60;;
66575;SDS011;53428;47.686;16.584;2024-02-23T12:45:33;11.73;;;6.40;;
66575;SDS011;53428;47.686;16.584;2024-02-23T12:50:32;7.35;;;4.88;;
66575;SDS011;53428;47.686;16.584;2024-02-23T12:55:31;11.20;;;6.10;;
66575;SDS011;53428;47.686;16.584;2024-02-23T13:00:30;10.23;;;6.28;;
66575;SDS011;53428;47.686;16.584;2024-02-23T13:05:29;25.70;;;11.05;;
66575;SDS011;53428;47.686;16.584;2024-02-23T13:10:28;18.95;;;11.02;;
66575;SDS011;53428;47.686;16.584;2024-02-23T13:15:27;14.27;;;8.98;;
66575;SDS011;53428;47.686;16.584;2024-02-23T13:20:27;18.23;;;8.68;;
66575;SDS011;53428;47.686;16.584;2024-02-23T13:25:26;32.15;;;17.33;;
66575;SDS011;53428;47.686;16.584;2024-02-23T13:30:26;18.60;;;10.82;;
66575;SDS011;53428;47.686;16.584;2024-02-23T13:35:25;11.73;;;7.97;;
66575;SDS011;53428;47.686;16.584;2024-02-23T13:40:24;10.18;;;4.78;;
66575;SDS011;53428;47.686;16.584;2024-02-23T13:45:23;7.53;;;3.80;;
66575;SDS011;53428;47.686;16.584;2024-02-23T13:50:23;4.78;;;3.40;;
66575;SDS011;53428;47.686;16.584;2024-02-23T13:55:22;5.82;;;3.70;;
66575;SDS011;53428;47.686;16.584;2024-02-23T14:00:21;4.35;;;3.20;;
66575;SDS011;53428;47.686;16.584;2024-02-23T14:05:20;13.48;;;4.55;;
66575;SDS011;53428;47.686;16.584;2024-02-23T14:10:20;7.10;;;4.30;;
66575;SDS011;53428;47.686;16.584;2024-02-23T14:15:19;9.15;;;4.82;;
66575;SDS011;53428;47.686;16.584;2024-02-23T14:20:18;6.85;;;3.97;;
66575;SDS011;53428;47.686;16.584;2024-02-23T14:25:18;9.35;;;5.32;;
66575;SDS011;53428;47.686;16.584;2024-02-23T14:30:17;11.93;;;5.18;;
66575;SDS011;53428;47.686;16.584;2024-02-23T14:35:16;6.68;;;4.55;;
66575;SDS011;53428;47.686;16.584;2024-02-23T14:40:15;8.98;;;5.38;;
66575;SDS011;53428;47.686;16.584;2024-02-23T14:45:14;10.13;;;5.55;;
66575;SDS011;53428;47.686;16.584;2024-02-23T14:50:15;6.07;;;4.28;;
66575;SDS011;53428;47.686;16.584;2024-02-23T14:55:14;6.15;;;4.80;;
66575;SDS011;53428;47.686;16.584;2024-02-23T15:00:13;8.43;;;4.80;;
66575;SDS011;53428;47.686;16.584;2024-02-23T15:05:13;7.45;;;5.35;;
66575;SDS011;53428;47.686;16.584;2024-02-23T15:10:12;8.68;;;3.90;;
66575;SDS011;53428;47.686;16.584;2024-02-23T15:15:11;6.43;;;4.72;;
66575;SDS011;53428;47.686;16.584;2024-02-23T15:20:10;6.70;;;5.05;;
66575;SDS011;53428;47.686;16.584;2024-02-23T15:25:09;6.43;;;4.65;;
66575;SDS011;53428;47.686;16.584;2024-02-23T15:30:09;8.07;;;5.07;;
66575;SDS011;53428;47.686;16.584;2024-02-23T15:35:09;7.07;;;4.45;;
66575;SDS011;53428;47.686;16.584;2024-02-23T15:40:08;7.07;;;4.65;;
66575;SDS011;53428;47.686;16.584;2024-02-23T15:45:07;9.02;;;4.22;;
66575;SDS011;53428;47.686;16.584;2024-02-23T15:50:07;6.70;;;4.45;;
66575;SDS011;53428;47.686;16.584;2024-02-23T15:55:06;11.80;;;6.07;;
66575;SDS011;53428;47.686;16.584;2024-02-23T16:00:10;7.13;;;4.57;;
66575;SDS011;53428;47.686;16.584;2024-02-23T16:05:09;7.68;;;5.03;;
66575;SDS011;53428;47.686;16.584;2024-02-23T16:10:09;6.93;;;5.43;;
66575;SDS011;53428;47.686;16.584;2024-02-23T16:15:11;8.77;;;6.32;;
66575;SDS011;53428;47.686;16.584;2024-02-23T16:20:10;10.27;;;6.25;;
66575;SDS011;53428;47.686;16.584;2024-02-23T16:25:10;10.20;;;6.55;;
66575;SDS011;53428;47.686;16.584;2024-02-23T16:30:09;10.77;;;6.05;;
66575;SDS011;53428;47.686;16.584;2024-02-23T16:35:09;9.43;;;5.32;;
66575;SDS011;53428;47.686;16.584;2024-02-23T16:40:20;8.23;;;5.80;;
66575;SDS011;53428;47.686;16.584;2024-02-23T16:45:22;12.05;;;6.18;;
66575;SDS011;53428;47.686;16.584;2024-02-23T16:50:25;11.75;;;8.20;;
66575;SDS011;53428;47.686;16.584;2024-02-23T16:55:24;13.05;;;7.85;;
66575;SDS011;53428;47.686;16.584;2024-02-23T17:00:23;12.07;;;7.35;;
66575;SDS011;53428;47.686;16.584;2024-02-23T17:05:25;16.63;;;8.57;;
66575;SDS011;53428;47.686;16.584;2024-02-23T17:10:24;24.85;;;11.40;;
66575;SDS011;53428;47.686;16.584;2024-02-23T17:15:23;20.58;;;10.05;;
66575;SDS011;53428;47.686;16.584;2024-02-23T17:20:22;18.20;;;11.15;;
66575;SDS011;53428;47.686;16.584;2024-02-23T17:25:21;16.98;;;10.18;;
66575;SDS011;53428;47.686;16.584;2024-02-23T17:30:20;17.25;;;9.57;;
66575;SDS011;53428;47.686;16.584;2024-02-23T17:35:19;14.55;;;8.75;;
66575;SDS011;53428;47.686;16.584;2024-02-23T17:40:18;17.85;;;10.00;;
66575;SDS011;53428;47.686;16.584;2024-02-23T17:45:18;15.18;;;8.95;;
66575;SDS011;53428;47.686;16.584;2024-02-23T17:50:17;9.43;;;6.78;;
66575;SDS011;53428;47.686;16.584;2024-02-23T17:55:16;14.00;;;8.40;;
66575;SDS011;53428;47.686;16.584;2024-02-23T18:00:16;14.05;;;8.68;;
66575;SDS011;53428;47.686;16.584;2024-02-23T18:05:15;14.85;;;9.77;;
66575;SDS011;53428;47.686;16.584;2024-02-23T18:10:14;14.60;;;8.43;;
66575;SDS011;53428;47.686;16.584;2024-02-23T18:15:13;13.70;;;9.00;;
66575;SDS011;53428;47.686;16.584;2024-02-23T18:20:13;21.98;;;10.70;;
66575;SDS011;53428;47.686;16.584;2024-02-23T18:25:12;19.52;;;9.50;;
66575;SDS011;53428;47.686;16.584;2024-02-23T18:30:13;15.15;;;7.82;;
66575;SDS011;53428;47.686;16.584;2024-02-23T18:35:13;15.10;;;7.72;;
66575;SDS011;53428;47.686;16.584;2024-02-23T18:40:12;10.88;;;6.72;;
66575;SDS011;53428;47.686;16.584;2024-02-23T18:45:11;17.13;;;6.28;;
66575;SDS011;53428;47.686;16.584;2024-02-23T18:50:12;13.73;;;6.72;;
66575;SDS011;53428;47.686;16.584;2024-02-23T18:55:12;22.08;;;9.68;;
66575;SDS011;53428;47.686;16.584;2024-02-23T19:00:11;14.85;;;6.95;;
66575;SDS011;53428;47.686;16.584;2024-02-23T19:05:11;12.70;;;6.63;;
66575;SDS011;53428;47.686;16.584;2024-02-23T19:10:10;10.52;;;6.00;;
66575;SDS011;53428;47.686;16.584;2024-02-23T19:15:09;10.63;;;6.30;;
66575;SDS011;53428;47.686;16.584;2024-02-23T19:20:09;9.27;;;5.68;;
66575;SDS011;53428;47.686;16.584;2024-02-23T19:25:08;11.07;;;6.18;;
66575;SDS011;53428;47.686;16.584;2024-02-23T19:30:08;13.35;;;6.68;;
66575;SDS011;53428;47.686;16.584;2024-02-23T19:35:10;5.85;;;4.65;;
66575;SDS011;53428;47.686;16.584;2024-02-23T19:40:10;8.65;;;4.30;;
66575;SDS011;53428;47.686;16.584;2024-02-23T19:45:11;8.48;;;4.93;;
66575;SDS011;53428;47.686;16.584;2024-02-23T19:50:11;8.93;;;5.22;;
66575;SDS011;53428;47.686;16.584;2024-02-23T19:55:10;8.98;;;5.22;;
66575;SDS011;53428;47.686;16.584;2024-02-23T20:00:09;8.35;;;5.40;;
66575;SDS011;53428;47.686;16.584;2024-02-23T20:05:09;62.22;;;24.92;;
66575;SDS011;53428;47.686;16.584;2024-02-23T20:10:08;54.28;;;18.98;;
66575;SDS011;53428;47.686;16.584;2024-02-23T20:15:08;10.27;;;5.10;;
66575;SDS011;53428;47.686;16.584;2024-02-23T20:20:07;7.55;;;5.10;;
66575;SDS011;53428;47.686;16.584;2024-02-23T20:25:07;6.13;;;4.50;;
66575;SDS011;53428;47.686;16.584;2024-02-23T20:30:07;8.40;;;5.38;;
66575;SDS011;53428;47.686;16.584;2024-02-23T20:35:08;9.23;;;4.93;;
66575;SDS011;53428;47.686;16.584;2024-02-23T20:40:07;9.00;;;4.75;;
66575;SDS011;53428;47.686;16.584;2024-02-23T20:45:07;10.60;;;4.68;;
66575;SDS011;53428;47.686;16.584;2024-02-23T20:50:07;7.47;;;5.30;;
66575;SDS011;53428;47.686;16.584;2024-02-23T20:55:07;8.98;;;5.30;;
66575;SDS011;53428;47.686;16.584;2024-02-23T21:00:07;7.25;;;4.20;;
66575;SDS011;53428;47.686;16.584;2024-02-23T21:05:06;6.22;;;4.32;;
66575;SDS011;53428;47.686;16.584;2024-02-23T21:10:06;6.70;;;4.85;;
66575;SDS011;53428;47.686;16.584;2024-02-23T21:15:06;14.00;;;4.22;;
66575;SDS011;53428;47.686;16.584;2024-02-23T21:20:06;7.07;;;4.60;;
66575;SDS011;53428;47.686;16.584;2024-02-23T21:25:05;8.93;;;3.80;;
66575;SDS011;53428;47.686;16.584;2024-02-23T21:30:05;10.50;;;6.28;;
66575;SDS011;53428;47.686;16.584;2024-02-23T21:35:05;7.35;;;6.05;;
66575;SDS011;53428;47.686;16.584;2024-02-23T21:40:05;10.43;;;6.80;;
66575;SDS011;53428;47.686;16.584;2024-02-23T21:45:05;8.52;;;4.68;;
66575;SDS011;53428;47.686;16.584;2024-02-23T21:50:04;8.55;;;4.32;;
66575;SDS011;53428;47.686;16.584;2024-02-23T21:55:05;6.80;;;5.10;;
66575;SDS011;53428;47.686;16.584;2024-02-23T22:00:04;8.43;;;5.28;;
66575;SDS011;53428;47.686;16.584;2024-02-23T22:05:05;6.65;;;4.25;;
66575;SDS011;53428;47.686;16.584;2024-02-23T22:10:04;10.00;;;4.38;;
66575;SDS011;53428;47.686;16.584;2024-02-23T22:15:04;9.38;;;5.22;;
66575;SDS011;53428;47.686;16.584;2024-02-23T22:20:07;8.18;;;4.93;;
66575;SDS011;53428;47.686;16.584;2024-02-23T22:25:06;5.63;;;4.20;;
66575;SDS011;53428;47.686;16.584;2024-02-23T22:30:06;5.82;;;3.85;;
66575;SDS011;53428;47.686;16.584;2024-02-23T22:35:11;7.07;;;3.25;;
66575;SDS011;53428;47.686;16.584;2024-02-23T22:40:11;3.60;;;1.92;;
66575;SDS011;53428;47.686;16.584;2024-02-23T22:45:11;1.85;;;1.50;;
66575;SDS011;53428;47.686;16.584;2024-02-23T22:50:11;1.98;;;1.30;;
66575;SDS011;53428;47.686;16.584;2024-02-23T22:55:10;1.85;;;1.35;;
66575;SDS011;53428;47.686;16.584;2024-02-23T23:00:10;1.55;;;1.45;;
66575;SDS011;53428;47.686;16.584;2024-02-23T23:05:09;1.63;;;1.15;;
66575;SDS011;53428;47.686;16.584;2024-02-23T23:10:09;1.60;;;1.33;;
66575;SDS011;53428;47.686;16.584;2024-02-23T23:15:08;0.95;;;0.90;;
66575;SDS011;53428;47.686;16.584;2024-02-23T23:20:08;1.83;;;1.05;;
66575;SDS011;53428;47.686;16.584;2024-02-23T23:25:07;1.25;;;0.93;;
66575;SDS011;53428;47.686;16.584;2024-02-23T23:30:07;1.52;;;1.30;;
66575;SDS011;53428;47.686;16.584;2024-02-23T23:35:06;1.88;;;0.93;;
66575;SDS011;53428;47.686;16.584;2024-02-23T23:40:06;1.88;;;1.40;;
66575;SDS011;53428;47.686;16.584;2024-02-23T23:45:06;0.75;;;0.60;;
66575;SDS011;53428;47.686;16.584;2024-02-23T23:50:05;1.85;;;0.85;;
66575;SDS011;53428;47.686;16.584;2024-02-23T23:55:05;0.98;;;0.77;;
